Time;durP1;ratioP1;P1;durP2;ratioP2;P2;SDS_P1;SDS_P2;PMS_P1;PMS_P2;Temp;Humidity;BMP_temperature;BMP_pressure;BME280_temperature;BME280_humidity;BME280_pressure;Samples;Min_cycle;Max_cycle;Signal;HPM_P1;HPM_P2
2022/08/01 00:01:57;;;;;;;;;;;23.20;69.10;;;;;;5027065;28;19909;-76
2022/08/01 00:04:23;;;;;;;;;;;23.20;70.30;;;;;;5016307;28;19914;-87
2022/08/01 00:06:49;;;;;;;;;;;23.10;71.00;;;;;;5016668;28;20378;-76
2022/08/01 00:09:15;;;;;;;;;;;23.10;71.90;;;;;;5016454;28;19917;-76
2022/08/01 00:11:42;;;;;;;;;;;23.00;72.90;;;;;;5015287;28;19917;-75
2022/08/01 00:14:09;;;;;;;;;;;23.00;74.30;;;;;;5017317;28;20267;-77
2022/08/01 00:16:35;;;;;;;;;;;22.90;75.10;;;;;;5013671;28;19917;-77
2022/08/01 00:19:02;;;;;;;;;;;22.80;76.70;;;;;;5013745;28;19917;-76
2022/08/01 00:21:28;;;;;;;;;;;22.80;77.40;;;;;;5010045;28;20382;-77
2022/08/01 00:23:54;;;;;;;;;;;22.80;78.60;;;;;;5002469;28;19972;-76
2022/08/01 00:26:20;;;;;;;;;;;22.90;78.60;;;;;;5010924;28;20274;-76
2022/08/01 00:28:46;;;;;;;;;;;22.80;79.50;;;;;;5013972;28;19910;-82
2022/08/01 00:31:12;;;;;;;;;;;22.80;79.70;;;;;;5013662;28;19917;-76
2022/08/01 00:33:38;;;;;;;;;;;22.70;80.60;;;;;;5014909;28;19944;-75
2022/08/01 00:36:04;;;;;;;;;;;22.60;81.40;;;;;;5011845;28;19914;-76
2022/08/01 00:38:30;;;;;;;;;;;22.60;82.00;;;;;;5008675;28;19925;-77
2022/08/01 00:40:56;;;;;;;;;;;22.50;82.40;;;;;;5013190;28;19924;-75
2022/08/01 00:43:22;;;;;;;;;;;22.50;82.90;;;;;;5015551;28;19920;-76
2022/08/01 00:45:48;;;;;;;;;;;22.40;83.40;;;;;;5009571;28;20264;-76
2022/08/01 00:48:14;;;;;;;;;;;22.40;84.00;;;;;;5016621;28;19916;-80
2022/08/01 00:50:40;;;;;;;;;;;22.40;84.70;;;;;;5015263;28;19940;-76
2022/08/01 00:53:06;;;;;;;;;;;22.30;85.40;;;;;;5015915;28;19910;-75
2022/08/01 00:55:33;;;;;;;;;;;22.20;86.10;;;;;;5004134;28;19905;-76
2022/08/01 00:57:59;;;;;;;;;;;22.10;86.40;;;;;;5009045;28;19925;-76
2022/08/01 01:00:25;;;;;;;;;;;22.10;87.10;;;;;;5015555;28;19909;-85
2022/08/01 01:02:51;;;;;;;;;;;22.10;87.50;;;;;;5015879;28;19920;-76
2022/08/01 01:05:17;;;;;;;;;;;21.90;88.10;;;;;;5005283;28;20359;-76
2022/08/01 01:07:50;;;;;;;;;;;21.90;89.10;;;;;;5015589;28;20002;-77
2022/08/01 01:10:32;;;;;;;;;;;21.80;90.00;;;;;;5016671;28;19909;-77
2022/08/01 01:13:06;;;;;;;;;;;21.80;90.10;;;;;;5016692;28;20275;-77
2022/08/01 01:15:44;;;;;;;;;;;21.70;90.50;;;;;;5002417;28;19917;-76
2022/08/01 01:18:29;;;;;;;;;;;21.60;91.00;;;;;;5014278;28;19917;-76
2022/08/01 01:21:04;;;;;;;;;;;21.60;91.00;;;;;;5015534;28;19909;-75
2022/08/01 01:23:36;;;;;;;;;;;21.40;91.50;;;;;;5012308;28;19910;-76
2022/08/01 01:26:23;;;;;;;;;;;21.40;91.90;;;;;;5014935;28;19917;-76
2022/08/01 01:28:49;;;;;;;;;;;21.30;92.10;;;;;;5015068;28;19916;-77
2022/08/01 01:31:17;;;;;;;;;;;21.40;92.40;;;;;;5012129;28;20270;-76
2022/08/01 01:33:43;;;;;;;;;;;21.40;92.40;;;;;;5010015;28;19938;-77
2022/08/01 01:36:11;;;;;;;;;;;21.50;92.40;;;;;;5021374;28;19909;-76
2022/08/01 01:38:41;;;;;;;;;;;21.40;92.50;;;;;;5012619;28;20382;-76
2022/08/01 01:41:09;;;;;;;;;;;21.40;92.50;;;;;;5009847;28;19916;-76
2022/08/01 01:43:36;;;;;;;;;;;21.40;92.70;;;;;;5012663;28;19917;-76
2022/08/01 01:46:03;;;;;;;;;;;21.40;92.90;;;;;;5015471;28;20282;-75
2022/08/01 01:48:29;;;;;;;;;;;21.40;93.10;;;;;;5015164;28;19909;-76
2022/08/01 01:50:56;;;;;;;;;;;21.40;93.10;;;;;;5012978;28;19932;-76
2022/08/01 01:53:23;;;;;;;;;;;21.30;93.70;;;;;;5007165;28;19910;-79
2022/08/01 01:55:50;;;;;;;;;;;21.20;93.40;;;;;;5010159;28;20244;-75
2022/08/01 01:58:17;;;;;;;;;;;21.10;93.70;;;;;;5012952;28;20393;-75
2022/08/01 02:00:44;;;;;;;;;;;21.20;95.00;;;;;;5014533;28;19917;-74
2022/08/01 02:03:12;;;;;;;;;;;21.20;94.50;;;;;;5011358;28;20239;-75
2022/08/01 02:05:38;;;;;;;;;;;21.20;95.00;;;;;;5008225;28;20649;-74
2022/08/01 02:08:05;;;;;;;;;;;21.20;94.20;;;;;;5013680;28;20362;-74
2022/08/01 02:10:32;;;;;;;;;;;21.20;94.10;;;;;;5011099;28;19909;-75
2022/08/01 02:12:59;;;;;;;;;;;21.20;94.30;;;;;;5014493;28;19909;-76
2022/08/01 02:15:26;;;;;;;;;;;21.00;94.40;;;;;;5012663;28;19909;-86
2022/08/01 02:17:53;;;;;;;;;;;21.00;94.80;;;;;;5011785;28;19924;-76
2022/08/01 02:20:19;;;;;;;;;;;20.90;95.10;;;;;;4999728;28;20359;-76
2022/08/01 02:22:45;;;;;;;;;;;20.80;95.50;;;;;;5014662;28;20365;-76
2022/08/01 02:25:25;;;;;;;;;;;20.80;95.90;;;;;;5005077;28;19913;-76
2022/08/01 02:27:56;;;;;;;;;;;20.80;95.60;;;;;;5013189;28;20275;-78
2022/08/01 02:30:24;;;;;;;;;;;20.90;95.60;;;;;;5007767;28;20355;-77
2022/08/01 02:32:51;;;;;;;;;;;20.80;96.00;;;;;;5011239;28;20389;-78
2022/08/01 02:35:19;;;;;;;;;;;20.90;95.70;;;;;;5012836;28;19920;-76
2022/08/01 02:37:47;;;;;;;;;;;20.90;96.10;;;;;;5006815;28;19994;-76
2022/08/01 02:40:14;;;;;;;;;;;20.90;96.10;;;;;;5007902;28;19906;-76
2022/08/01 02:42:43;;;;;;;;;;;21.00;95.70;;;;;;5011209;28;19910;-76
2022/08/01 02:45:09;;;;;;;;;;;21.00;96.70;;;;;;5014122;28;20346;-76
2022/08/01 02:47:37;;;;;;;;;;;20.90;96.70;;;;;;5013473;28;19916;-79
2022/08/01 02:50:04;;;;;;;;;;;21.00;96.60;;;;;;5013418;28;20235;-76
2022/08/01 02:52:31;;;;;;;;;;;20.80;97.30;;;;;;5021382;28;20453;-83
2022/08/01 02:54:58;;;;;;;;;;;20.80;96.70;;;;;;5014335;28;19917;-77
2022/08/01 02:57:25;;;;;;;;;;;20.80;96.60;;;;;;5006433;28;19918;-76
2022/08/01 02:59:53;;;;;;;;;;;20.80;96.60;;;;;;5007869;28;19916;-77
2022/08/01 03:02:20;;;;;;;;;;;20.70;96.60;;;;;;5012175;28;19924;-78
2022/08/01 03:04:47;;;;;;;;;;;20.60;97.00;;;;;;5011072;28;19918;-76
2022/08/01 03:07:13;;;;;;;;;;;20.60;97.30;;;;;;5005297;28;19936;-77
2022/08/01 03:09:41;;;;;;;;;;;20.50;97.60;;;;;;5007811;28;19909;-78
2022/08/01 03:12:10;;;;;;;;;;;20.40;97.70;;;;;;5007470;28;19917;-77
2022/08/01 03:14:37;;;;;;;;;;;20.30;98.30;;;;;;5010800;28;19921;-77
2022/08/01 03:17:04;;;;;;;;;;;20.20;98.30;;;;;;5004084;28;20044;-77
2022/08/01 03:19:31;;;;;;;;;;;20.10;98.80;;;;;;4993840;28;20283;-78
2022/08/01 03:22:03;;;;;;;;;;;20.10;98.90;;;;;;4994039;28;19916;-77
2022/08/01 03:24:30;;;;;;;;;;;20.20;98.90;;;;;;5013296;28;19932;-80
2022/08/01 03:26:56;;;;;;;;;;;20.20;98.90;;;;;;5013864;28;19910;-76
2022/08/01 03:29:24;;;;;;;;;;;20.20;99.00;;;;;;5014013;28;20374;-77
2022/08/01 03:31:51;;;;;;;;;;;20.20;99.00;;;;;;5011053;28;19917;-77
2022/08/01 03:34:17;;;;;;;;;;;20.20;98.90;;;;;;5007641;28;19921;-77
2022/08/01 03:36:49;;;;;;;;;;;20.30;98.70;;;;;;5010659;28;19913;-77
2022/08/01 03:39:16;;;;;;;;;;;20.20;98.90;;;;;;5008796;28;19917;-77
2022/08/01 03:41:45;;;;;;;;;;;20.00;99.30;;;;;;5014780;28;19912;-77
2022/08/01 03:44:14;;;;;;;;;;;19.90;99.80;;;;;;5011139;28;19909;-77
2022/08/01 03:46:42;;;;;;;;;;;19.80;99.90;;;;;;5000873;28;19917;-78
2022/08/01 03:49:11;;;;;;;;;;;19.70;99.90;;;;;;5009490;28;20340;-75
2022/08/01 03:51:38;;;;;;;;;;;19.70;99.90;;;;;;5000231;28;19910;-77
2022/08/01 03:54:04;;;;;;;;;;;19.70;99.90;;;;;;5010154;28;19924;-75
2022/08/01 03:56:31;;;;;;;;;;;19.80;99.90;;;;;;5000128;28;20359;-76
2022/08/01 03:59:02;;;;;;;;;;;19.90;99.90;;;;;;5012304;28;19918;-75
2022/08/01 04:01:29;;;;;;;;;;;19.90;99.90;;;;;;5004157;28;20290;-80
2022/08/01 04:03:55;;;;;;;;;;;20.00;99.90;;;;;;5008052;28;19914;-77
2022/08/01 04:06:21;;;;;;;;;;;20.00;99.90;;;;;;5013234;28;19909;-75
2022/08/01 04:08:55;;;;;;;;;;;20.20;99.90;;;;;;5007049;28;19905;-76
2022/08/01 04:11:22;;;;;;;;;;;20.40;99.70;;;;;;5011568;28;19909;-75
2022/08/01 04:13:48;;;;;;;;;;;20.40;99.20;;;;;;5010783;28;19916;-75
2022/08/01 04:16:14;;;;;;;;;;;20.60;99.10;;;;;;5011924;28;19910;-75
2022/08/01 04:18:40;;;;;;;;;;;20.60;98.70;;;;;;5007143;28;19917;-78
2022/08/01 04:21:06;;;;;;;;;;;20.60;98.60;;;;;;5011421;28;20235;-75
2022/08/01 04:23:33;;;;;;;;;;;20.60;98.50;;;;;;5004685;28;19910;-75
2022/08/01 04:26:00;;;;;;;;;;;20.60;98.80;;;;;;5008709;28;19909;-75
2022/08/01 04:28:26;;;;;;;;;;;20.60;98.80;;;;;;5008032;28;19917;-79
2022/08/01 04:30:55;;;;;;;;;;;20.70;98.80;;;;;;5007447;28;19925;-75
2022/08/01 04:33:21;;;;;;;;;;;20.80;98.40;;;;;;5002586;28;19936;-75
2022/08/01 04:35:49;;;;;;;;;;;20.80;98.00;;;;;;5005777;28;20294;-75
2022/08/01 04:38:17;;;;;;;;;;;20.90;98.00;;;;;;5019035;28;19917;-75
2022/08/01 04:40:48;;;;;;;;;;;20.90;97.90;;;;;;5010102;28;19922;-77
2022/08/01 04:43:14;;;;;;;;;;;20.90;98.00;;;;;;5010784;28;19917;-84
2022/08/01 04:45:43;;;;;;;;;;;20.90;97.80;;;;;;4993382;28;19910;-76
2022/08/01 04:48:09;;;;;;;;;;;21.00;97.80;;;;;;5010557;28;19916;-76
2022/08/01 04:50:36;;;;;;;;;;;21.00;97.60;;;;;;5011706;28;20274;-82
2022/08/01 04:53:02;;;;;;;;;;;21.10;97.50;;;;;;5005038;28;19906;-77
2022/08/01 04:55:29;;;;;;;;;;;21.10;97.40;;;;;;5010423;28;20282;-86
2022/08/01 04:57:55;;;;;;;;;;;21.10;97.40;;;;;;5002415;28;19925;-76
2022/08/01 05:00:21;;;;;;;;;;;21.10;97.30;;;;;;4999193;28;19913;-76
2022/08/01 05:02:47;;;;;;;;;;;21.20;97.10;;;;;;5001737;28;19905;-75
2022/08/01 05:05:14;;;;;;;;;;;21.20;96.90;;;;;;5001223;28;19929;-76
2022/08/01 05:07:40;;;;;;;;;;;21.30;97.00;;;;;;5003236;28;19910;-76
2022/08/01 05:10:06;;;;;;;;;;;21.40;96.70;;;;;;5010958;28;19909;-76
2022/08/01 05:12:32;;;;;;;;;;;21.40;96.30;;;;;;4994426;28;19909;-76
2022/08/01 05:14:59;;;;;;;;;;;21.40;96.10;;;;;;5017226;28;19909;-76
2022/08/01 05:17:25;;;;;;;;;;;21.50;96.10;;;;;;5008160;28;19920;-75
2022/08/01 05:19:51;;;;;;;;;;;21.50;96.20;;;;;;5003649;28;19913;-76
2022/08/01 05:22:17;;;;;;;;;;;21.60;95.90;;;;;;5002667;28;20350;-79
2022/08/01 05:24:43;;;;;;;;;;;21.70;95.50;;;;;;4998740;28;20294;-75
2022/08/01 05:27:09;;;;;;;;;;;21.80;95.20;;;;;;5015456;28;19913;-76
2022/08/01 05:29:35;;;;;;;;;;;21.80;95.50;;;;;;5005531;28;20389;-76
2022/08/01 05:32:01;;;;;;;;;;;21.90;95.10;;;;;;5013033;28;19910;-77
2022/08/01 05:34:28;;;;;;;;;;;21.90;95.10;;;;;;5012088;28;19913;-82
2022/08/01 05:36:54;;;;;;;;;;;22.00;94.60;;;;;;5015585;28;20389;-77
2022/08/01 05:39:20;;;;;;;;;;;22.00;94.40;;;;;;5010155;28;19992;-77
2022/08/01 05:41:46;;;;;;;;;;;22.10;94.30;;;;;;5015532;28;20008;-77
2022/08/01 05:44:12;;;;;;;;;;;22.10;94.30;;;;;;5015144;28;20282;-77
2022/08/01 05:46:38;;;;;;;;;;;22.10;94.00;;;;;;5015453;28;19971;-77
2022/08/01 05:49:04;;;;;;;;;;;22.10;93.90;;;;;;5030260;28;20380;-77
2022/08/01 05:51:30;;;;;;;;;;;22.10;94.40;;;;;;5017452;28;19905;-84
2022/08/01 05:53:57;;;;;;;;;;;22.10;94.40;;;;;;5010640;28;20358;-78
2022/08/01 05:56:23;;;;;;;;;;;22.10;94.60;;;;;;5016132;28;19909;-78
2022/08/01 05:58:50;;;;;;;;;;;22.20;94.10;;;;;;5022840;28;19921;-78
2022/08/01 06:01:16;;;;;;;;;;;22.50;93.30;;;;;;5011549;28;19913;-79
2022/08/01 06:03:42;;;;;;;;;;;23.00;92.00;;;;;;5014008;28;20390;-78
2022/08/01 06:06:08;;;;;;;;;;;23.50;91.60;;;;;;4998585;28;19909;-78
2022/08/01 06:08:34;;;;;;;;;;;23.80;90.20;;;;;;5014638;28;19909;-78
2022/08/01 06:11:00;;;;;;;;;;;23.90;89.00;;;;;;5010133;28;19968;-74
2022/08/01 06:13:27;;;;;;;;;;;23.70;88.70;;;;;;5010078;28;20363;-74
2022/08/01 06:15:53;;;;;;;;;;;23.90;89.90;;;;;;5014474;28;19909;-75
2022/08/01 06:18:19;;;;;;;;;;;24.20;87.20;;;;;;5011256;28;20018;-75
2022/08/01 06:20:45;;;;;;;;;;;24.90;84.20;;;;;;5009304;28;19914;-76
2022/08/01 06:23:11;;;;;;;;;;;24.80;82.90;;;;;;5009785;28;19914;-76
2022/08/01 06:25:37;;;;;;;;;;;24.70;82.80;;;;;;5006336;28;20290;-78
2022/08/01 06:28:03;;;;;;;;;;;25.20;81.30;;;;;;5009266;28;20000;-78
2022/08/01 06:30:29;;;;;;;;;;;26.00;77.20;;;;;;5012939;28;19924;-84
2022/08/01 06:32:58;;;;;;;;;;;25.80;76.10;;;;;;5013502;28;19910;-77
2022/08/01 06:35:24;;;;;;;;;;;25.50;78.00;;;;;;5009559;28;19917;-77
2022/08/01 06:37:50;;;;;;;;;;;25.20;78.00;;;;;;5007264;28;19917;-77
2022/08/01 06:40:16;;;;;;;;;;;25.30;78.50;;;;;;5009999;28;19914;-76
2022/08/01 06:42:42;;;;;;;;;;;25.40;76.80;;;;;;5012390;28;20003;-78
2022/08/01 06:45:09;;;;;;;;;;;25.60;76.60;;;;;;5024675;28;19916;-77
2022/08/01 06:47:35;;;;;;;;;;;26.40;75.10;;;;;;5017295;28;19909;-79
2022/08/01 06:50:02;;;;;;;;;;;26.40;72.70;;;;;;5022704;28;20326;-77
2022/08/01 06:52:28;;;;;;;;;;;26.20;74.10;;;;;;5018169;28;19913;-77
2022/08/01 06:54:54;;;;;;;;;;;26.10;72.60;;;;;;5014037;28;19914;-77
2022/08/01 06:57:20;;;;;;;;;;;25.90;74.50;;;;;;5014001;28;19917;-77
2022/08/01 06:59:46;;;;;;;;;;;26.00;74.40;;;;;;5008096;28;19913;-79
2022/08/01 07:02:12;;;;;;;;;;;26.40;71.80;;;;;;5017336;28;19914;-80
2022/08/01 07:04:38;;;;;;;;;;;26.00;73.30;;;;;;5056757;22;20301;-80
2022/08/01 07:07:04;;;;;;;;;;;25.50;75.00;;;;;;5058713;28;19908;-77
2022/08/01 07:09:30;;;;;;;;;;;25.70;77.00;;;;;;5049133;28;19917;-78
2022/08/01 07:11:56;;;;;;;;;;;25.80;74.40;;;;;;5050221;28;19912;-78
2022/08/01 07:14:23;;;;;;;;;;;25.60;76.10;;;;;;5048901;28;19909;-77
2022/08/01 07:16:50;;;;;;;;;;;25.50;74.70;;;;;;5052092;28;19908;-77
2022/08/01 07:19:16;;;;;;;;;;;24.70;77.40;;;;;;5050411;28;19916;-77
2022/08/01 07:21:42;;;;;;;;;;;24.40;79.50;;;;;;5049641;28;19917;-77
2022/08/01 07:24:09;;;;;;;;;;;24.40;81.70;;;;;;5047732;28;19913;-76
2022/08/01 07:26:35;;;;;;;;;;;24.30;81.40;;;;;;5047060;28;19920;-76
2022/08/01 07:29:01;;;;;;;;;;;24.10;83.00;;;;;;5043532;28;19909;-76
2022/08/01 07:31:27;;;;;;;;;;;24.40;84.00;;;;;;5034584;28;20388;-78
2022/08/01 07:33:53;;;;;;;;;;;26.60;76.00;;;;;;5044858;28;19913;-77
2022/08/01 07:36:19;;;;;;;;;;;29.20;66.30;;;;;;5047560;28;19909;-78
2022/08/01 07:38:45;;;;;;;;;;;30.10;60.50;;;;;;5047370;28;19924;-78
2022/08/01 07:41:11;;;;;;;;;;;29.10;62.10;;;;;;5048901;28;19932;-78
2022/08/01 07:43:37;;;;;;;;;;;28.30;63.60;;;;;;5047205;28;20309;-78
2022/08/01 07:46:03;;;;;;;;;;;27.70;65.50;;;;;;5044320;28;19912;-78
2022/08/01 07:48:30;;;;;;;;;;;26.50;66.40;;;;;;5049870;28;19909;-86
2022/08/01 07:50:56;;;;;;;;;;;25.70;69.90;;;;;;5040632;28;19916;-77
2022/08/01 07:53:22;;;;;;;;;;;25.30;72.50;;;;;;5041714;28;20274;-77
2022/08/01 07:55:48;;;;;;;;;;;25.10;74.30;;;;;;5050103;28;19908;-76
2022/08/01 07:58:15;;;;;;;;;;;24.90;74.10;;;;;;5051856;28;20302;-76
2022/08/01 08:00:41;;;;;;;;;;;24.70;75.10;;;;;;5047728;28;19908;-81
2022/08/01 08:03:07;;;;;;;;;;;24.30;78.10;;;;;;5041746;28;19928;-80
2022/08/01 08:05:35;;;;;;;;;;;24.40;81.00;;;;;;5050590;28;19916;-78
2022/08/01 08:08:04;;;;;;;;;;;24.80;78.70;;;;;;5051678;28;20287;-77
2022/08/01 08:10:30;;;;;;;;;;;25.10;77.60;;;;;;5028182;28;19909;-87
2022/08/01 08:12:56;;;;;;;;;;;25.30;76.20;;;;;;5032945;28;20285;-81
2022/08/01 08:15:22;;;;;;;;;;;25.00;75.50;;;;;;5041649;28;20270;-77
2022/08/01 08:17:48;;;;;;;;;;;24.60;77.40;;;;;;5050696;28;19913;-77
2022/08/01 08:20:14;;;;;;;;;;;24.60;77.40;;;;;;5043999;28;19909;-76
2022/08/01 08:22:40;;;;;;;;;;;24.50;77.90;;;;;;5048934;28;19915;-78
2022/08/01 08:25:06;;;;;;;;;;;24.40;79.50;;;;;;5048517;28;19909;-80
2022/08/01 08:27:32;;;;;;;;;;;24.50;78.90;;;;;;5046204;28;20268;-79
2022/08/01 08:29:58;;;;;;;;;;;24.30;79.20;;;;;;5033491;28;20258;-77
2022/08/01 08:32:24;;;;;;;;;;;24.20;79.50;;;;;;5066533;28;19962;-76
2022/08/01 08:34:50;;;;;;;;;;;24.10;79.70;;;;;;5047889;28;19923;-77
2022/08/01 08:37:17;;;;;;;;;;;24.50;79.10;;;;;;5059531;28;19909;-78
2022/08/01 08:39:43;;;;;;;;;;;25.10;76.70;;;;;;5058081;28;19916;-77
2022/08/01 08:42:10;;;;;;;;;;;25.20;76.40;;;;;;5057725;28;19912;-79
2022/08/01 08:44:36;;;;;;;;;;;25.20;76.80;;;;;;5058335;28;20269;-78
2022/08/01 08:47:05;;;;;;;;;;;25.00;76.70;;;;;;5058910;28;19908;-78
2022/08/01 08:49:31;;;;;;;;;;;25.10;76.60;;;;;;5053258;28;19913;-80
2022/08/01 08:51:58;;;;;;;;;;;25.50;76.70;;;;;;5049727;28;19920;-76
2022/08/01 08:54:25;;;;;;;;;;;26.50;71.30;;;;;;5059024;28;19909;-83
2022/08/01 08:56:54;;;;;;;;;;;26.20;71.00;;;;;;5055047;28;20354;-83
2022/08/01 08:59:20;;;;;;;;;;;26.10;71.10;;;;;;5055784;28;20293;-83
2022/08/01 09:01:48;;;;;;;;;;;25.80;73.60;;;;;;5061666;28;19908;-82
2022/08/01 09:04:14;;;;;;;;;;;26.40;71.00;;;;;;5057498;28;19928;-82
2022/08/01 09:06:40;;;;;;;;;;;26.10;71.50;;;;;;5049868;28;20270;-85
2022/08/01 09:09:07;;;;;;;;;;;26.20;71.10;;;;;;5036732;28;19909;-87
2022/08/01 09:11:33;;;;;;;;;;;26.40;71.20;;;;;;5061927;28;19916;-86
2022/08/01 09:14:02;;;;;;;;;;;26.40;71.50;;;;;;5059968;28;19920;-83
2022/08/01 09:16:30;;;;;;;;;;;26.20;70.80;;;;;;5062237;28;19915;-85
2022/08/01 09:19:06;;;;;;;;;;;26.00;73.50;;;;;;5034752;28;20285;-86
2022/08/01 09:21:31;;;;;;;;;;;26.30;71.20;;;;;;5063279;28;20372;-82
2022/08/01 09:23:59;;;;;;;;;;;26.40;70.20;;;;;;5059464;28;20010;-81
2022/08/01 09:26:30;;;;;;;;;;;25.80;71.40;;;;;;5058137;28;19908;-84
2022/08/01 09:28:57;;;;;;;;;;;25.90;71.50;;;;;;5051351;28;19968;-85
2022/08/01 09:31:26;;;;;;;;;;;26.50;70.10;;;;;;5050160;28;19916;-84
2022/08/01 09:33:55;;;;;;;;;;;26.70;70.30;;;;;;5049408;28;19913;-84
2022/08/01 09:36:21;;;;;;;;;;;27.40;67.40;;;;;;5049506;28;19916;-84
2022/08/01 09:38:48;;;;;;;;;;;28.80;64.50;;;;;;5055243;28;20028;-85
2022/08/01 09:41:14;;;;;;;;;;;29.80;61.60;;;;;;5048271;28;19937;-83
2022/08/01 09:43:47;;;;;;;;;;;30.30;60.30;;;;;;5049161;28;19919;-83
2022/08/01 09:46:14;;;;;;;;;;;29.20;59.70;;;;;;5054265;28;19916;-84
2022/08/01 09:48:59;;;;;;;;;;;27.50;63.80;;;;;;5050612;28;19909;-84
2022/08/01 09:51:33;;;;;;;;;;;27.00;65.70;;;;;;5034361;28;19916;-84
2022/08/01 09:53:59;;;;;;;;;;;27.30;64.20;;;;;;5048921;28;20274;-82
2022/08/01 09:56:25;;;;;;;;;;;27.10;63.90;;;;;;5046304;28;19916;-82
2022/08/01 09:58:53;;;;;;;;;;;27.00;66.50;;;;;;5032398;28;19917;-82
2022/08/01 10:01:23;;;;;;;;;;;28.20;63.60;;;;;;5054859;28;20341;-84
2022/08/01 10:04:05;;;;;;;;;;;28.00;63.40;;;;;;5064518;28;20273;-84
2022/08/01 10:06:31;;;;;;;;;;;27.00;65.10;;;;;;5055223;28;19909;-82
2022/08/01 10:08:57;;;;;;;;;;;27.10;65.90;;;;;;5052255;28;19908;-77
2022/08/01 10:11:23;;;;;;;;;;;27.60;63.90;;;;;;5051790;28;19958;-78
2022/08/01 10:13:49;;;;;;;;;;;28.00;63.30;;;;;;5042507;28;19920;-83
2022/08/01 10:16:16;;;;;;;;;;;28.40;60.80;;;;;;5061789;28;19916;-82
2022/08/01 10:18:44;;;;;;;;;;;27.90;61.60;;;;;;5048297;28;20293;-82
2022/08/01 10:21:10;;;;;;;;;;;27.40;61.70;;;;;;5053084;28;19923;-84
2022/08/01 10:23:37;;;;;;;;;;;27.10;62.80;;;;;;5055772;28;20305;-81
2022/08/01 10:26:05;;;;;;;;;;;27.10;63.20;;;;;;5044892;28;19924;-83
2022/08/01 10:28:34;;;;;;;;;;;27.30;65.10;;;;;;5050080;28;19908;-81
2022/08/01 10:31:01;;;;;;;;;;;27.50;63.80;;;;;;5054126;28;19980;-85
2022/08/01 10:33:27;;;;;;;;;;;27.80;64.30;;;;;;5070195;28;19913;-82
2022/08/01 10:35:53;;;;;;;;;;;27.90;61.40;;;;;;5065974;28;19915;-84
2022/08/01 10:38:19;;;;;;;;;;;27.00;62.50;;;;;;5062054;28;19917;-85
2022/08/01 10:40:45;;;;;;;;;;;27.00;64.50;;;;;;5055641;28;19908;-86
2022/08/01 10:43:15;;;;;;;;;;;26.90;64.90;;;;;;5054358;28;19916;-84
2022/08/01 10:45:42;;;;;;;;;;;26.90;64.50;;;;;;5048266;28;19908;-84
2022/08/01 10:48:17;;;;;;;;;;;27.20;63.50;;;;;;5049027;28;20102;-84
2022/08/01 10:50:45;;;;;;;;;;;27.20;63.40;;;;;;5053669;28;20393;-82
2022/08/01 10:53:21;;;;;;;;;;;27.10;64.30;;;;;;5052218;28;19909;-82
2022/08/01 10:55:51;;;;;;;;;;;27.20;64.30;;;;;;5059560;28;19919;-84
2022/08/01 10:58:37;;;;;;;;;;;27.40;62.80;;;;;;5050759;28;19909;-81
2022/08/01 11:01:41;;;;;;;;;;;27.70;62.50;;;;;;5052916;28;19915;-82
2022/08/01 11:04:11;;;;;;;;;;;27.90;62.70;;;;;;5009478;28;20425;-83
2022/08/01 11:06:48;;;;;;;;;;;28.30;61.20;;;;;;5007007;28;19916;-82
2022/08/01 11:09:14;;;;;;;;;;;28.20;61.60;;;;;;4995562;28;20294;-83
2022/08/01 11:11:58;;;;;;;;;;;28.10;61.20;;;;;;5007180;28;19910;-82
2022/08/01 11:14:24;;;;;;;;;;;27.60;61.80;;;;;;5010406;28;19909;-81
2022/08/01 11:16:50;;;;;;;;;;;27.20;61.70;;;;;;5010862;28;19921;-82
2022/08/01 11:19:16;;;;;;;;;;;26.70;63.40;;;;;;4997006;28;19918;-82
2022/08/01 11:21:55;;;;;;;;;;;26.80;63.50;;;;;;4992907;28;20060;-82
2022/08/01 11:24:39;;;;;;;;;;;27.10;64.10;;;;;;5009881;28;20124;-82
2022/08/01 11:27:19;;;;;;;;;;;27.00;63.30;;;;;;5008100;28;19932;-83
2022/08/01 11:30:03;;;;;;;;;;;27.00;64.10;;;;;;5010660;28;19909;-83
2022/08/01 11:32:29;;;;;;;;;;;26.70;64.10;;;;;;5006455;28;20178;-80
2022/08/01 11:34:56;;;;;;;;;;;26.90;64.10;;;;;;5014434;28;19932;-81
2022/08/01 11:37:25;;;;;;;;;;;27.30;63.50;;;;;;5026372;28;19916;-80
2022/08/01 11:40:11;;;;;;;;;;;27.40;63.50;;;;;;5013357;28;19932;-82
2022/08/01 11:42:37;;;;;;;;;;;27.70;62.10;;;;;;5015430;28;19909;-81
2022/08/01 11:45:03;;;;;;;;;;;28.10;62.20;;;;;;5027950;28;19909;-81
2022/08/01 11:47:48;;;;;;;;;;;28.50;61.30;;;;;;5031974;28;19920;-81
2022/08/01 11:50:34;;;;;;;;;;;28.40;60.20;;;;;;5028635;28;20297;-82
2022/08/01 11:53:00;;;;;;;;;;;28.50;60.10;;;;;;5026017;28;19916;-82
2022/08/01 11:55:27;;;;;;;;;;;28.20;60.30;;;;;;5026738;28;19916;-82
2022/08/01 11:58:01;;;;;;;;;;;28.10;61.40;;;;;;5030189;28;19920;-81
2022/08/01 12:00:27;;;;;;;;;;;28.10;60.90;;;;;;5027776;28;19923;-82
2022/08/01 12:03:02;;;;;;;;;;;28.10;60.90;;;;;;5031836;28;19928;-82
2022/08/01 12:05:29;;;;;;;;;;;28.10;60.50;;;;;;5041955;28;19908;-83
2022/08/01 12:07:56;;;;;;;;;;;28.10;62.50;;;;;;5041827;28;19909;-82
2022/08/01 12:10:23;;;;;;;;;;;28.10;59.90;;;;;;5034505;28;19909;-82
2022/08/01 12:12:51;;;;;;;;;;;27.90;62.20;;;;;;5034241;28;19915;-82
2022/08/01 12:15:18;;;;;;;;;;;28.50;59.90;;;;;;5043298;28;19915;-82
2022/08/01 12:17:51;;;;;;;;;;;28.50;59.70;;;;;;5051787;28;19912;-82
2022/08/01 12:20:21;;;;;;;;;;;28.40;61.20;;;;;;5054954;28;20277;-84
2022/08/01 12:22:47;;;;;;;;;;;28.90;59.40;;;;;;5049857;28;19916;-83
2022/08/01 12:25:16;;;;;;;;;;;29.20;58.50;;;;;;5031318;28;20247;-83
2022/08/01 12:27:43;;;;;;;;;;;29.00;59.50;;;;;;5050735;28;19912;-83
2022/08/01 12:30:22;;;;;;;;;;;29.00;57.50;;;;;;5051282;28;19928;-82
2022/08/01 12:32:48;;;;;;;;;;;28.20;60.00;;;;;;5047554;28;19924;-83
2022/08/01 12:35:16;;;;;;;;;;;28.50;58.60;;;;;;5048961;28;19909;-82
2022/08/01 12:37:45;;;;;;;;;;;28.70;58.30;;;;;;5033768;28;20357;-82
2022/08/01 12:40:19;;;;;;;;;;;28.30;57.80;;;;;;5044409;28;19917;-82
2022/08/01 12:42:46;;;;;;;;;;;28.10;59.20;;;;;;5033996;28;19916;-83
2022/08/01 12:45:14;;;;;;;;;;;27.90;57.80;;;;;;5031473;28;19913;-82
2022/08/01 12:47:40;;;;;;;;;;;27.90;57.80;;;;;;5051464;28;20365;-81
2022/08/01 12:50:14;;;;;;;;;;;27.70;58.20;;;;;;5054232;28;20226;-81
2022/08/01 12:52:41;;;;;;;;;;;27.70;58.20;;;;;;5051174;28;19909;-80
2022/08/01 12:55:20;;;;;;;;;;;27.90;58.10;;;;;;5031363;28;19924;-80
2022/08/01 12:57:51;;;;;;;;;;;28.40;58.20;;;;;;5047048;28;19909;-80
2022/08/01 13:00:19;;;;;;;;;;;28.50;56.70;;;;;;5046167;28;19924;-84
2022/08/01 13:02:46;;;;;;;;;;;28.20;58.10;;;;;;5045147;28;20368;-83
2022/08/01 13:05:13;;;;;;;;;;;28.50;58.50;;;;;;5040936;28;20269;-82
2022/08/01 13:07:48;;;;;;;;;;;28.80;58.30;;;;;;5049588;28;19917;-82
2022/08/01 13:10:15;;;;;;;;;;;29.10;56.20;;;;;;5047966;28;19915;-81
2022/08/01 13:12:50;;;;;;;;;;;28.70;57.60;;;;;;5045852;28;19909;-81
2022/08/01 13:15:17;;;;;;;;;;;28.70;56.50;;;;;;5043349;28;19912;-82
2022/08/01 13:17:44;;;;;;;;;;;28.30;57.50;;;;;;5046731;28;20018;-83
2022/08/01 13:20:20;;;;;;;;;;;28.50;57.50;;;;;;5050572;28;20277;-83
2022/08/01 13:22:46;;;;;;;;;;;28.80;57.60;;;;;;5046984;28;19913;-87
2022/08/01 13:25:13;;;;;;;;;;;28.80;56.90;;;;;;5047303;28;19915;-85
2022/08/01 13:27:39;;;;;;;;;;;29.30;57.60;;;;;;5050756;28;19919;-84
2022/08/01 13:30:19;;;;;;;;;;;29.40;55.90;;;;;;5033525;28;19915;-82
2022/08/01 13:32:58;;;;;;;;;;;29.30;54.90;;;;;;5054521;28;19912;-75
2022/08/01 13:35:24;;;;;;;;;;;28.90;55.70;;;;;;5042484;28;19909;-77
2022/08/01 13:37:50;;;;;;;;;;;28.50;55.20;;;;;;5048023;28;19909;-76
2022/08/01 13:40:24;;;;;;;;;;;28.70;56.00;;;;;;5051868;28;20289;-78
2022/08/01 13:42:50;;;;;;;;;;;28.70;55.70;;;;;;5042238;28;20358;-77
2022/08/01 13:45:16;;;;;;;;;;;28.90;57.20;;;;;;5050579;28;20073;-76
2022/08/01 13:47:42;;;;;;;;;;;29.30;55.10;;;;;;5035803;28;20267;-77
2022/08/01 13:50:08;;;;;;;;;;;28.90;55.60;;;;;;5054410;28;19909;-77
2022/08/01 13:52:37;;;;;;;;;;;29.10;55.10;;;;;;5054036;28;20361;-81
2022/08/01 13:55:03;;;;;;;;;;;29.30;54.70;;;;;;5049638;28;19916;-80
2022/08/01 13:57:29;;;;;;;;;;;29.20;55.50;;;;;;5048374;28;19919;-81
2022/08/01 13:59:57;;;;;;;;;;;29.60;54.10;;;;;;5053152;28;19913;-81
2022/08/01 14:02:23;;;;;;;;;;;29.50;54.40;;;;;;5054137;28;19909;-79
2022/08/01 14:04:49;;;;;;;;;;;29.20;53.90;;;;;;5049883;28;19921;-81
2022/08/01 14:07:15;;;;;;;;;;;29.00;54.30;;;;;;5052358;28;19915;-82
2022/08/01 14:09:41;;;;;;;;;;;29.10;54.30;;;;;;5039681;28;20392;-81
2022/08/01 14:12:08;;;;;;;;;;;28.90;53.90;;;;;;5050777;28;20444;-82
2022/08/01 14:14:34;;;;;;;;;;;28.90;54.60;;;;;;5049456;28;20341;-82
2022/08/01 14:17:00;;;;;;;;;;;28.60;53.90;;;;;;5017487;28;19909;-81
2022/08/01 14:19:26;;;;;;;;;;;28.30;54.20;;;;;;5054714;28;19942;-83
2022/08/01 14:21:52;;;;;;;;;;;28.30;55.60;;;;;;5054300;28;19909;-83